sensor_id;sensor_type;location;lat;lon;timestamp;pressure;altitude;pressure_sealevel;temperature;humidity
60089;BME280;45961;53.574;55.878;2023-04-23T00:00:41;98961.13;;;7.64;98.37
60089;BME280;45961;53.574;55.878;2023-04-23T00:01:43;98957.66;;;7.63;98.21
60089;BME280;45961;53.574;55.878;2023-04-23T00:02:44;98954.25;;;7.66;97.90
60089;BME280;45961;53.574;55.878;2023-04-23T00:03:49;98962.81;;;7.71;97.95
60089;BME280;45961;53.574;55.878;2023-04-23T00:04:50;98957.69;;;7.70;97.65
60089;BME280;45961;53.574;55.878;2023-04-23T00:05:53;98964.56;;;7.69;97.73
60089;BME280;45961;53.574;55.878;2023-04-23T00:06:57;98953.41;;;7.69;97.68
60089;BME280;45961;53.574;55.878;2023-04-23T00:08:00;98957.69;;;7.73;97.27
60089;BME280;45961;53.574;55.878;2023-04-23T00:09:02;98955.09;;;7.70;97.51
60089;BME280;45961;53.574;55.878;2023-04-23T00:10:04;98968.84;;;7.73;97.26
60089;BME280;45961;53.574;55.878;2023-04-23T00:11:06;98961.09;;;7.72;97.24
60089;BME280;45961;53.574;55.878;2023-04-23T00:12:08;98962.00;;;7.77;97.06
60089;BME280;45961;53.574;55.878;2023-04-23T00:13:08;98967.13;;;7.81;97.00
60089;BME280;45961;53.574;55.878;2023-04-23T00:14:10;98956.81;;;7.74;97.13
60089;BME280;45961;53.574;55.878;2023-04-23T00:15:12;98965.41;;;7.71;97.17
60089;BME280;45961;53.574;55.878;2023-04-23T00:16:14;98972.25;;;7.67;97.02
60089;BME280;45961;53.574;55.878;2023-04-23T00:17:15;98963.72;;;7.64;97.26
60089;BME280;45961;53.574;55.878;2023-04-23T00:18:16;98965.44;;;7.68;97.32
60089;BME280;45961;53.574;55.878;2023-04-23T00:19:17;98968.00;;;7.68;97.20
60089;BME280;45961;53.574;55.878;2023-04-23T00:20:18;98965.41;;;7.62;97.34
60089;BME280;45961;53.574;55.878;2023-04-23T00:21:19;98968.84;;;7.64;97.23
60089;BME280;45961;53.574;55.878;2023-04-23T00:22:20;98955.97;;;7.58;97.54
60089;BME280;45961;53.574;55.878;2023-04-23T00:23:21;98968.84;;;7.58;97.49
60089;BME280;45961;53.574;55.878;2023-04-23T00:24:22;98967.13;;;7.57;97.63
60089;BME280;45961;53.574;55.878;2023-04-23T00:25:23;98967.13;;;7.57;97.62
60089;BME280;45961;53.574;55.878;2023-04-23T00:26:24;98970.53;;;7.54;97.82
60089;BME280;45961;53.574;55.878;2023-04-23T00:27:25;98976.56;;;7.59;97.71
60089;BME280;45961;53.574;55.878;2023-04-23T00:28:27;98976.56;;;7.59;97.89
60089;BME280;45961;53.574;55.878;2023-04-23T00:29:28;98974.00;;;7.69;97.75
60089;BME280;45961;53.574;55.878;2023-04-23T00:30:29;98977.44;;;7.71;97.61
60089;BME280;45961;53.574;55.878;2023-04-23T00:31:30;98973.13;;;7.71;97.58
60089;BME280;45961;53.574;55.878;2023-04-23T00:32:31;98983.44;;;7.68;97.32
60089;BME280;45961;53.574;55.878;2023-04-23T00:33:32;98976.56;;;7.67;97.40
60089;BME280;45961;53.574;55.878;2023-04-23T00:34:33;98975.72;;;7.68;97.37
60089;BME280;45961;53.574;55.878;2023-04-23T00:35:34;98983.41;;;7.63;97.35
60089;BME280;45961;53.574;55.878;2023-04-23T00:36:35;98973.16;;;7.65;97.38
60089;BME280;45961;53.574;55.878;2023-04-23T00:37:36;98981.72;;;7.70;97.33
60089;BME280;45961;53.574;55.878;2023-04-23T00:38:37;98982.59;;;7.74;97.35
60089;BME280;45961;53.574;55.878;2023-04-23T00:39:38;98976.59;;;7.73;97.21
60089;BME280;45961;53.574;55.878;2023-04-23T00:40:40;98979.16;;;7.64;97.37
60089;BME280;45961;53.574;55.878;2023-04-23T00:41:41;98987.75;;;7.69;97.41
60089;BME280;45961;53.574;55.878;2023-04-23T00:42:43;98986.03;;;7.77;97.26
60089;BME280;45961;53.574;55.878;2023-04-23T00:43:45;98989.44;;;7.82;97.23
60089;BME280;45961;53.574;55.878;2023-04-23T00:44:47;98982.59;;;7.81;97.13
60089;BME280;45961;53.574;55.878;2023-04-23T00:45:50;98988.59;;;7.77;96.91
60089;BME280;45961;53.574;55.878;2023-04-23T00:46:52;98989.47;;;7.76;97.00
60089;BME280;45961;53.574;55.878;2023-04-23T00:47:54;98987.75;;;7.74;97.05
60089;BME280;45961;53.574;55.878;2023-04-23T00:48:56;98970.56;;;7.62;97.16
60089;BME280;45961;53.574;55.878;2023-04-23T00:49:58;98997.16;;;7.72;97.12
60089;BME280;45961;53.574;55.878;2023-04-23T00:51:04;98994.59;;;7.72;97.02
60089;BME280;45961;53.574;55.878;2023-04-23T00:52:05;98996.34;;;7.80;97.17
60089;BME280;45961;53.574;55.878;2023-04-23T00:53:06;98970.56;;;7.65;97.06
60089;BME280;45961;53.574;55.878;2023-04-23T00:54:08;98986.88;;;7.75;97.28
60089;BME280;45961;53.574;55.878;2023-04-23T00:55:09;98994.59;;;7.79;97.14
60089;BME280;45961;53.574;55.878;2023-04-23T00:56:10;98989.47;;;7.76;97.17
60089;BME280;45961;53.574;55.878;2023-04-23T00:57:11;98988.59;;;7.73;97.02
60089;BME280;45961;53.574;55.878;2023-04-23T00:58:13;98986.88;;;7.76;97.03
60089;BME280;45961;53.574;55.878;2023-04-23T00:59:14;98987.75;;;7.74;97.04
60089;BME280;45961;53.574;55.878;2023-04-23T01:00:15;98996.34;;;7.80;97.01
60089;BME280;45961;53.574;55.878;2023-04-23T01:01:18;98992.88;;;7.78;96.76
60089;BME280;45961;53.574;55.878;2023-04-23T01:02:20;98989.47;;;7.76;96.76
60089;BME280;45961;53.574;55.878;2023-04-23T01:03:21;99001.47;;;7.77;96.72
60089;BME280;45961;53.574;55.878;2023-04-23T01:04:26;98997.19;;;7.78;96.82
60089;BME280;45961;53.574;55.878;2023-04-23T01:05:27;98997.19;;;7.87;96.91
60089;BME280;45961;53.574;55.878;2023-04-23T01:06:28;99001.47;;;7.86;96.83
60089;BME280;45961;53.574;55.878;2023-04-23T01:07:33;99004.94;;;7.88;96.63
60089;BME280;45961;53.574;55.878;2023-04-23T01:08:37;99004.06;;;7.89;96.54
60089;BME280;45961;53.574;55.878;2023-04-23T01:09:38;99002.34;;;7.82;96.45
60089;BME280;45961;53.574;55.878;2023-04-23T01:10:41;98998.06;;;7.84;96.62
60089;BME280;45961;53.574;55.878;2023-04-23T01:11:43;98991.16;;;7.91;96.56
60089;BME280;45961;53.574;55.878;2023-04-23T01:12:45;98992.06;;;7.84;96.61
60089;BME280;45961;53.574;55.878;2023-04-23T01:13:46;99002.34;;;7.84;96.56
60089;BME280;45961;53.574;55.878;2023-04-23T01:14:47;99011.78;;;7.86;96.83
60089;BME280;45961;53.574;55.878;2023-04-23T01:15:49;99003.22;;;7.84;96.85
60089;BME280;45961;53.574;55.878;2023-04-23T01:16:50;99000.63;;;7.86;96.83
60089;BME280;45961;53.574;55.878;2023-04-23T01:17:52;99003.19;;;7.87;96.57
60089;BME280;45961;53.574;55.878;2023-04-23T01:18:53;99007.50;;;7.85;96.64
60089;BME280;45961;53.574;55.878;2023-04-23T01:19:57;99005.78;;;7.90;96.71
60089;BME280;45961;53.574;55.878;2023-04-23T01:20:58;99012.63;;;7.95;96.53
60089;BME280;45961;53.574;55.878;2023-04-23T01:22:00;99017.81;;;7.96;96.44
60089;BME280;45961;53.574;55.878;2023-04-23T01:23:02;99015.22;;;7.91;96.42
60089;BME280;45961;53.574;55.878;2023-04-23T01:24:04;99010.91;;;7.90;96.47
60089;BME280;45961;53.574;55.878;2023-04-23T01:25:05;99005.78;;;7.94;96.40
60089;BME280;45961;53.574;55.878;2023-04-23T01:26:08;99016.94;;;7.94;96.33
60089;BME280;45961;53.574;55.878;2023-04-23T01:27:10;99015.25;;;7.96;96.23
60089;BME280;45961;53.574;55.878;2023-04-23T01:28:11;99016.94;;;7.99;96.12
60089;BME280;45961;53.574;55.878;2023-04-23T01:29:12;99019.53;;;8.00;95.99
60089;BME280;45961;53.574;55.878;2023-04-23T01:30:14;99009.19;;;7.96;95.87
60089;BME280;45961;53.574;55.878;2023-04-23T01:31:15;99013.53;;;7.97;95.76
60089;BME280;45961;53.574;55.878;2023-04-23T01:32:17;99020.38;;;7.93;95.72
60089;BME280;45961;53.574;55.878;2023-04-23T01:33:19;99016.09;;;7.89;95.89
60089;BME280;45961;53.574;55.878;2023-04-23T01:34:21;99018.66;;;7.90;95.69
60089;BME280;45961;53.574;55.878;2023-04-23T01:35:23;99018.66;;;7.87;95.61
60089;BME280;45961;53.574;55.878;2023-04-23T01:36:24;99025.53;;;7.85;95.71
60089;BME280;45961;53.574;55.878;2023-04-23T01:37:28;99017.78;;;7.87;95.77
60089;BME280;45961;53.574;55.878;2023-04-23T01:38:30;99020.34;;;7.79;95.81
60089;BME280;45961;53.574;55.878;2023-04-23T01:39:32;99017.81;;;7.84;95.92
60089;BME280;45961;53.574;55.878;2023-04-23T01:40:33;99027.25;;;7.89;95.83
60089;BME280;45961;53.574;55.878;2023-04-23T01:41:35;99020.38;;;7.91;95.74
60089;BME280;45961;53.574;55.878;2023-04-23T01:42:37;99024.66;;;7.96;95.59
60089;BME280;45961;53.574;55.878;2023-04-23T01:43:40;99026.38;;;7.98;95.42
60089;BME280;45961;53.574;55.878;2023-04-23T01:44:42;99034.13;;;7.98;95.37
60089;BME280;45961;53.574;55.878;2023-04-23T01:45:43;99025.53;;;7.98;95.37
60089;BME280;45961;53.574;55.878;2023-04-23T01:46:44;99028.97;;;7.97;95.44
60089;BME280;45961;53.574;55.878;2023-04-23T01:47:48;99027.22;;;7.96;95.37
60089;BME280;45961;53.574;55.878;2023-04-23T01:48:49;99028.09;;;8.04;95.22
60089;BME280;45961;53.574;55.878;2023-04-23T01:49:50;99036.72;;;8.09;94.97
60089;BME280;45961;53.574;55.878;2023-04-23T01:50:52;99035.00;;;8.05;94.92
60089;BME280;45961;53.574;55.878;2023-04-23T01:51:53;99034.97;;;8.14;94.96
60089;BME280;45961;53.574;55.878;2023-04-23T01:52:54;99037.56;;;8.14;94.82
60089;BME280;45961;53.574;55.878;2023-04-23T01:53:55;99031.53;;;8.10;94.49
60089;BME280;45961;53.574;55.878;2023-04-23T01:54:56;99042.72;;;8.11;94.56
60089;BME280;45961;53.574;55.878;2023-04-23T01:55:58;99045.31;;;8.12;94.52
60089;BME280;45961;53.574;55.878;2023-04-23T01:57:00;99040.16;;;8.12;94.18
60089;BME280;45961;53.574;55.878;2023-04-23T01:58:02;99049.56;;;8.15;93.99
60089;BME280;45961;53.574;55.878;2023-04-23T01:59:03;99034.13;;;8.07;94.26
60089;BME280;45961;53.574;55.878;2023-04-23T02:00:09;99046.13;;;8.07;93.93
60089;BME280;45961;53.574;55.878;2023-04-23T02:01:14;99048.72;;;8.01;94.15
60089;BME280;45961;53.574;55.878;2023-04-23T02:02:15;99047.88;;;8.06;93.98
60089;BME280;45961;53.574;55.878;2023-04-23T02:03:17;99051.31;;;8.10;93.67
60089;BME280;45961;53.574;55.878;2023-04-23T02:04:18;99053.00;;;7.99;93.67
60089;BME280;45961;53.574;55.878;2023-04-23T02:05:20;99051.31;;;8.01;93.79
60089;BME280;45961;53.574;55.878;2023-04-23T02:06:21;99047.00;;;8.07;93.46
60089;BME280;45961;53.574;55.878;2023-04-23T02:07:22;99054.72;;;7.98;93.25
60089;BME280;45961;53.574;55.878;2023-04-23T02:08:23;99053.88;;;7.93;93.31
60089;BME280;45961;53.574;55.878;2023-04-23T02:09:24;99052.16;;;7.92;93.23
60089;BME280;45961;53.574;55.878;2023-04-23T02:10:25;99057.31;;;7.92;93.19
60089;BME280;45961;53.574;55.878;2023-04-23T02:11:26;99061.59;;;7.99;93.25
60089;BME280;45961;53.574;55.878;2023-04-23T02:12:27;99058.16;;;7.96;93.18
60089;BME280;45961;53.574;55.878;2023-04-23T02:13:28;99056.44;;;8.04;92.97
60089;BME280;45961;53.574;55.878;2023-04-23T02:14:29;99057.31;;;7.97;92.94
60089;BME280;45961;53.574;55.878;2023-04-23T02:15:30;99054.75;;;8.01;92.81
60089;BME280;45961;53.574;55.878;2023-04-23T02:16:33;99060.75;;;8.00;92.56
60089;BME280;45961;53.574;55.878;2023-04-23T02:17:35;99063.31;;;7.93;92.74
60089;BME280;45961;53.574;55.878;2023-04-23T02:18:36;99064.19;;;7.90;92.99
60089;BME280;45961;53.574;55.878;2023-04-23T02:19:37;99057.28;;;7.87;93.17
60089;BME280;45961;53.574;55.878;2023-04-23T02:20:38;99056.44;;;7.90;93.36
60089;BME280;45961;53.574;55.878;2023-04-23T02:21:41;99069.34;;;7.98;93.86
60089;BME280;45961;53.574;55.878;2023-04-23T02:22:42;99065.03;;;7.95;93.75
60089;BME280;45961;53.574;55.878;2023-04-23T02:23:43;99064.16;;;8.04;94.04
60089;BME280;45961;53.574;55.878;2023-04-23T02:24:44;99068.47;;;8.06;93.84
60089;BME280;45961;53.574;55.878;2023-04-23T02:25:47;99073.63;;;8.06;93.77
60089;BME280;45961;53.574;55.878;2023-04-23T02:26:48;99065.91;;;8.06;93.86
60089;BME280;45961;53.574;55.878;2023-04-23T02:27:49;99057.31;;;8.06;93.99
60089;BME280;45961;53.574;55.878;2023-04-23T02:28:51;99049.56;;;8.03;93.93
60089;BME280;45961;53.574;55.878;2023-04-23T02:29:52;99066.78;;;8.10;94.01
60089;BME280;45961;53.574;55.878;2023-04-23T02:30:53;99074.50;;;8.10;94.02
60089;BME280;45961;53.574;55.878;2023-04-23T02:31:54;99071.06;;;8.06;94.22
60089;BME280;45961;53.574;55.878;2023-04-23T02:32:55;99071.91;;;8.16;94.38
60089;BME280;45961;53.574;55.878;2023-04-23T02:33:56;99071.91;;;8.16;94.39
60089;BME280;45961;53.574;55.878;2023-04-23T02:34:57;99073.66;;;8.17;94.56
60089;BME280;45961;53.574;55.878;2023-04-23T02:35:59;99076.22;;;8.12;94.49
60089;BME280;45961;53.574;55.878;2023-04-23T02:37:00;99075.38;;;8.18;94.59
60089;BME280;45961;53.574;55.878;2023-04-23T02:38:01;99076.25;;;8.20;94.67
60089;BME280;45961;53.574;55.878;2023-04-23T02:39:02;99077.09;;;8.25;94.70
60089;BME280;45961;53.574;55.878;2023-04-23T02:40:04;99076.22;;;8.26;94.67
60089;BME280;45961;53.574;55.878;2023-04-23T02:41:06;99081.38;;;8.34;94.69
60089;BME280;45961;53.574;55.878;2023-04-23T02:42:07;99084.00;;;8.37;94.70
60089;BME280;45961;53.574;55.878;2023-04-23T02:43:08;99089.09;;;8.35;94.91
60089;BME280;45961;53.574;55.878;2023-04-23T02:44:09;99081.41;;;8.37;94.95
60089;BME280;45961;53.574;55.878;2023-04-23T02:45:10;99083.13;;;8.39;94.99
60089;BME280;45961;53.574;55.878;2023-04-23T02:46:11;99079.66;;;8.36;95.04
60089;BME280;45961;53.574;55.878;2023-04-23T02:47:12;99076.25;;;8.37;95.12
60089;BME280;45961;53.574;55.878;2023-04-23T02:48:14;99088.25;;;8.44;95.13
60089;BME280;45961;53.574;55.878;2023-04-23T02:49:15;99089.13;;;8.48;95.09
60089;BME280;45961;53.574;55.878;2023-04-23T02:50:16;99086.53;;;8.48;95.18
60089;BME280;45961;53.574;55.878;2023-04-23T02:51:17;99083.97;;;8.51;95.06
60089;BME280;45961;53.574;55.878;2023-04-23T02:52:18;99083.13;;;8.58;95.02
60089;BME280;45961;53.574;55.878;2023-04-23T02:53:19;99081.41;;;8.57;94.90
60089;BME280;45961;53.574;55.878;2023-04-23T02:54:20;99081.41;;;8.61;94.79
60089;BME280;45961;53.574;55.878;2023-04-23T02:55:22;99082.25;;;8.60;94.92
60089;BME280;45961;53.574;55.878;2023-04-23T02:56:25;99093.41;;;8.62;94.86
60089;BME280;45961;53.574;55.878;2023-04-23T02:57:26;99097.72;;;8.65;94.93
60089;BME280;45961;53.574;55.878;2023-04-23T02:58:28;99088.25;;;8.65;95.07
60089;BME280;45961;53.574;55.878;2023-04-23T02:59:31;99096.88;;;8.64;95.19
60089;BME280;45961;53.574;55.878;2023-04-23T03:00:32;99089.09;;;8.71;95.08
60089;BME280;45961;53.574;55.878;2023-04-23T03:01:33;99080.50;;;8.64;95.13
60089;BME280;45961;53.574;55.878;2023-04-23T03:02:35;99082.22;;;8.77;95.01
60089;BME280;45961;53.574;55.878;2023-04-23T03:03:36;99094.28;;;8.77;94.94
60089;BME280;45961;53.574;55.878;2023-04-23T03:04:38;99091.69;;;8.78;94.94
60089;BME280;45961;53.574;55.878;2023-04-23T03:05:39;99089.09;;;8.80;94.82
60089;BME280;45961;53.574;55.878;2023-04-23T03:06:40;99088.22;;;8.90;94.65
60089;BME280;45961;53.574;55.878;2023-04-23T03:07:42;99094.22;;;8.94;94.60
60089;BME280;45961;53.574;55.878;2023-04-23T03:08:43;99094.22;;;8.94;94.75
60089;BME280;45961;53.574;55.878;2023-04-23T03:09:44;99097.66;;;8.96;94.53
60089;BME280;45961;53.574;55.878;2023-04-23T03:10:45;99091.63;;;8.92;94.43
60089;BME280;45961;53.574;55.878;2023-04-23T03:11:46;99089.94;;;8.88;94.46
60089;BME280;45961;53.574;55.878;2023-04-23T03:12:48;99090.78;;;8.92;94.40
60089;BME280;45961;53.574;55.878;2023-04-23T03:13:49;99102.81;;;8.96;94.37
60089;BME280;45961;53.574;55.878;2023-04-23T03:14:52;99098.50;;;8.99;94.21
60089;BME280;45961;53.574;55.878;2023-04-23T03:15:54;99070.16;;;8.85;94.07
60089;BME280;45961;53.574;55.878;2023-04-23T03:16:55;99103.66;;;9.07;93.93
60089;BME280;45961;53.574;55.878;2023-04-23T03:17:56;99100.22;;;9.05;93.81
60089;BME280;45961;53.574;55.878;2023-04-23T03:18:58;99098.50;;;9.07;93.56
60089;BME280;45961;53.574;55.878;2023-04-23T03:19:59;99098.47;;;9.08;93.39
60089;BME280;45961;53.574;55.878;2023-04-23T03:21:00;99094.19;;;9.06;92.92
60089;BME280;45961;53.574;55.878;2023-04-23T03:22:02;99100.19;;;9.11;92.65
60089;BME280;45961;53.574;55.878;2023-04-23T03:23:05;99101.06;;;9.11;92.55
60089;BME280;45961;53.574;55.878;2023-04-23T03:24:06;99107.09;;;9.17;92.25
60089;BME280;45961;53.574;55.878;2023-04-23T03:25:08;99104.50;;;9.15;92.06
60089;BME280;45961;53.574;55.878;2023-04-23T03:26:09;99107.03;;;9.23;91.82
60089;BME280;45961;53.574;55.878;2023-04-23T03:27:10;99110.47;;;9.28;91.72
60089;BME280;45961;53.574;55.878;2023-04-23T03:28:11;99113.94;;;9.21;91.64
60089;BME280;45961;53.574;55.878;2023-04-23T03:29:12;99107.91;;;9.20;91.46
60089;BME280;45961;53.574;55.878;2023-04-23T03:30:13;99113.94;;;9.19;91.50
60089;BME280;45961;53.574;55.878;2023-04-23T03:31:14;99099.34;;;9.10;91.46
60089;BME280;45961;53.574;55.878;2023-04-23T03:32:15;99113.94;;;9.16;91.32
60089;BME280;45961;53.574;55.878;2023-04-23T03:33:16;99123.44;;;9.08;91.38
60089;BME280;45961;53.574;55.878;2023-04-23T03:34:18;99117.44;;;9.03;91.38
60089;BME280;45961;53.574;55.878;2023-04-23T03:35:19;99121.69;;;9.08;91.32
60089;BME280;45961;53.574;55.878;2023-04-23T03:36:22;99119.13;;;9.04;91.35
60089;BME280;45961;53.574;55.878;2023-04-23T03:37:23;99118.25;;;9.11;91.42
60089;BME280;45961;53.574;55.878;2023-04-23T03:38:24;99118.25;;;9.08;91.29
60089;BME280;45961;53.574;55.878;2023-04-23T03:39:27;99125.13;;;9.12;91.16
60089;BME280;45961;53.574;55.878;2023-04-23T03:40:29;99119.13;;;9.11;91.24
60089;BME280;45961;53.574;55.878;2023-04-23T03:41:34;99108.84;;;8.98;91.12
60089;BME280;45961;53.574;55.878;2023-04-23T03:42:36;99139.78;;;9.10;91.18
60089;BME280;45961;53.574;55.878;2023-04-23T03:43:37;99126.00;;;9.12;91.05
60089;BME280;45961;53.574;55.878;2023-04-23T03:44:38;99120.00;;;9.03;91.12
60089;BME280;45961;53.574;55.878;2023-04-23T03:45:39;99130.34;;;8.98;91.12
60089;BME280;45961;53.574;55.878;2023-04-23T03:46:40;99130.34;;;9.03;91.48
60089;BME280;45961;53.574;55.878;2023-04-23T03:47:42;99129.44;;;9.08;91.59
60089;BME280;45961;53.574;55.878;2023-04-23T03:48:44;99129.47;;;9.07;91.35
60089;BME280;45961;53.574;55.878;2023-04-23T03:49:52;99131.19;;;9.02;91.26
60089;BME280;45961;53.574;55.878;2023-04-23T03:50:53;99133.78;;;9.05;91.36
60089;BME280;45961;53.574;55.878;2023-04-23T03:52:06;99128.59;;;9.03;91.56
60089;BME280;45961;53.574;55.878;2023-04-23T03:53:11;99133.75;;;9.11;91.41
60089;BME280;45961;53.574;55.878;2023-04-23T03:54:30;99137.19;;;9.08;91.13
60089;BME280;45961;53.574;55.878;2023-04-23T03:55:42;99146.69;;;9.05;91.28
60089;BME280;45961;53.574;55.878;2023-04-23T03:56:43;99142.38;;;9.05;91.27
60089;BME280;45961;53.574;55.878;2023-04-23T03:57:49;99138.94;;;9.06;91.44
60089;BME280;45961;53.574;55.878;2023-04-23T03:59:00;99138.06;;;9.06;91.46
60089;BME280;45961;53.574;55.878;2023-04-23T04:00:02;99141.53;;;9.09;91.63
60089;BME280;45961;53.574;55.878;2023-04-23T04:01:14;99142.38;;;9.04;91.63
60089;BME280;45961;53.574;55.878;2023-04-23T04:02:15;99142.41;;;9.01;91.71
60089;BME280;45961;53.574;55.878;2023-04-23T04:03:16;99144.97;;;9.01;91.79
60089;BME280;45961;53.574;55.878;2023-04-23T04:04:17;99152.69;;;9.08;91.85
60089;BME280;45961;53.574;55.878;2023-04-23T04:05:18;99153.56;;;9.04;91.96
60089;BME280;45961;53.574;55.878;2023-04-23T04:06:19;99155.28;;;9.07;92.03
60089;BME280;45961;53.574;55.878;2023-04-23T04:07:21;99143.22;;;9.10;92.00
60089;BME280;45961;53.574;55.878;2023-04-23T04:08:22;99163.91;;;9.06;91.96
60089;BME280;45961;53.574;55.878;2023-04-23T04:09:23;99154.47;;;8.93;91.99
60089;BME280;45961;53.574;55.878;2023-04-23T04:10:24;99163.91;;;8.97;92.09
60089;BME280;45961;53.574;55.878;2023-04-23T04:11:25;99167.31;;;9.00;92.18
60089;BME280;45961;53.574;55.878;2023-04-23T04:12:26;99161.31;;;8.92;92.16
60089;BME280;45961;53.574;55.878;2023-04-23T04:13:27;99169.94;;;8.91;92.09
60089;BME280;45961;53.574;55.878;2023-04-23T04:14:30;99169.94;;;8.97;92.15
60089;BME280;45961;53.574;55.878;2023-04-23T04:15:31;99175.97;;;8.88;92.06
60089;BME280;45961;53.574;55.878;2023-04-23T04:16:32;99176.81;;;8.90;92.15
60089;BME280;45961;53.574;55.878;2023-04-23T04:17:33;99175.09;;;8.94;92.16
60089;BME280;45961;53.574;55.878;2023-04-23T04:18:34;99175.94;;;8.99;91.98
60089;BME280;45961;53.574;55.878;2023-04-23T04:19:35;99181.13;;;8.95;92.02
60089;BME280;45961;53.574;55.878;2023-04-23T04:20:36;99175.09;;;8.89;91.90
60089;BME280;45961;53.574;55.878;2023-04-23T04:21:37;99188.00;;;8.99;91.68
60089;BME280;45961;53.574;55.878;2023-04-23T04:22:38;99171.66;;;8.86;91.88
60089;BME280;45961;53.574;55.878;2023-04-23T04:23:39;99179.41;;;8.90;91.86
60089;BME280;45961;53.574;55.878;2023-04-23T04:24:41;99186.28;;;8.93;91.84
60089;BME280;45961;53.574;55.878;2023-04-23T04:25:41;99177.69;;;8.93;92.00
60089;BME280;45961;53.574;55.878;2023-04-23T04:26:44;99168.22;;;8.98;91.97
60089;BME280;45961;53.574;55.878;2023-04-23T04:27:45;99180.25;;;9.02;91.92
60089;BME280;45961;53.574;55.878;2023-04-23T04:28:46;99177.66;;;9.00;91.92
60089;BME280;45961;53.574;55.878;2023-04-23T04:29:47;99177.69;;;8.97;91.85
60089;BME280;45961;53.574;55.878;2023-04-23T04:30:48;99181.09;;;9.10;91.81
60089;BME280;45961;53.574;55.878;2023-04-23T04:31:49;99173.31;;;9.16;91.68
60089;BME280;45961;53.574;55.878;2023-04-23T04:32:51;99179.38;;;9.09;91.63
60089;BME280;45961;53.574;55.878;2023-04-23T04:33:51;99176.78;;;9.12;91.40
60089;BME280;45961;53.574;55.878;2023-04-23T04:34:53;99184.50;;;9.20;91.49
60089;BME280;45961;53.574;55.878;2023-04-23T04:35:54;99188.78;;;9.28;91.25
60089;BME280;45961;53.574;55.878;2023-04-23T04:36:56;99184.50;;;9.26;91.06
60089;BME280;45961;53.574;55.878;2023-04-23T04:37:57;99184.50;;;9.29;90.92
60089;BME280;45961;53.574;55.878;2023-04-23T04:38:59;99189.63;;;9.36;90.70
60089;BME280;45961;53.574;55.878;2023-04-23T04:40:00;99193.06;;;9.32;90.72
60089;BME280;45961;53.574;55.878;2023-04-23T04:41:03;99199.97;;;9.32;90.79
60089;BME280;45961;53.574;55.878;2023-04-23T04:42:04;99193.94;;;9.28;90.70
60089;BME280;45961;53.574;55.878;2023-04-23T04:43:06;99193.94;;;9.34;90.56
60089;BME280;45961;53.574;55.878;2023-04-23T04:44:07;99188.81;;;9.25;90.57
60089;BME280;45961;53.574;55.878;2023-04-23T04:45:09;99194.84;;;9.29;90.42
60089;BME280;45961;53.574;55.878;2023-04-23T04:46:10;99194.81;;;9.30;90.32
60089;BME280;45961;53.574;55.878;2023-04-23T04:47:11;99210.31;;;9.24;90.04
60089;BME280;45961;53.574;55.878;2023-04-23T04:48:13;99211.19;;;9.25;90.06
60089;BME280;45961;53.574;55.878;2023-04-23T04:49:14;99202.56;;;9.27;89.90
60089;BME280;45961;53.574;55.878;2023-04-23T04:50:15;99202.56;;;9.27;89.75
60089;BME280;45961;53.574;55.878;2023-04-23T04:51:16;99205.13;;;9.35;89.64
60089;BME280;45961;53.574;55.878;2023-04-23T04:52:17;99212.88;;;9.39;89.29
60089;BME280;45961;53.574;55.878;2023-04-23T04:53:19;99210.28;;;9.46;89.24
60089;BME280;45961;53.574;55.878;2023-04-23T04:54:19;99212.00;;;9.47;88.91
60089;BME280;45961;53.574;55.878;2023-04-23T04:55:21;99208.56;;;9.46;88.88
60089;BME280;45961;53.574;55.878;2023-04-23T04:56:22;99218.00;;;9.52;88.76
60089;BME280;45961;53.574;55.878;2023-04-23T04:57:23;99216.28;;;9.48;88.41
60089;BME280;45961;53.574;55.878;2023-04-23T04:58:24;99207.69;;;9.46;88.20
60089;BME280;45961;53.574;55.878;2023-04-23T04:59:25;99213.72;;;9.48;88.39
60089;BME280;45961;53.574;55.878;2023-04-23T05:00:28;99221.47;;;9.57;88.38
60089;BME280;45961;53.574;55.878;2023-04-23T05:01:29;99220.59;;;9.61;88.61
60089;BME280;45961;53.574;55.878;2023-04-23T05:02:32;99223.16;;;9.59;88.57
60089;BME280;45961;53.574;55.878;2023-04-23T05:03:33;99218.00;;;9.58;88.34
60089;BME280;45961;53.574;55.878;2023-04-23T05:04:34;99224.88;;;9.62;88.23
60089;BME280;45961;53.574;55.878;2023-04-23T05:05:35;99227.44;;;9.67;88.03
60089;BME280;45961;53.574;55.878;2023-04-23T05:06:39;99228.28;;;9.73;87.79
60089;BME280;45961;53.574;55.878;2023-04-23T05:07:40;99229.09;;;9.77;87.66
60089;BME280;45961;53.574;55.878;2023-04-23T05:08:42;99232.56;;;9.76;87.28
60089;BME280;45961;53.574;55.878;2023-04-23T05:09:47;99234.28;;;9.81;87.38
60089;BME280;45961;53.574;55.878;2023-04-23T05:10:48;99227.41;;;9.76;86.96
60089;BME280;45961;53.574;55.878;2023-04-23T05:11:53;99239.47;;;9.78;86.87
60089;BME280;45961;53.574;55.878;2023-04-23T05:12:56;99232.59;;;9.71;86.66
60089;BME280;45961;53.574;55.878;2023-04-23T05:13:57;99236.03;;;9.81;86.80
60089;BME280;45961;53.574;55.878;2023-04-23T05:14:58;99240.31;;;9.85;86.67
60089;BME280;45961;53.574;55.878;2023-04-23T05:15:59;99245.47;;;9.83;86.45
60089;BME280;45961;53.574;55.878;2023-04-23T05:17:01;99246.28;;;9.92;86.25
60089;BME280;45961;53.574;55.878;2023-04-23T05:18:02;99247.16;;;9.87;86.15
60089;BME280;45961;53.574;55.878;2023-04-23T05:19:04;99247.13;;;10.03;85.83
60089;BME280;45961;53.574;55.878;2023-04-23T05:20:05;99255.72;;;10.05;85.41
60089;BME280;45961;53.574;55.878;2023-04-23T05:21:08;99247.97;;;10.00;85.29
60089;BME280;45961;53.574;55.878;2023-04-23T05:22:09;99255.75;;;9.93;85.01
60089;BME280;45961;53.574;55.878;2023-04-23T05:23:10;99251.47;;;9.88;85.05
60089;BME280;45961;53.574;55.878;2023-04-23T05:24:11;99254.91;;;9.91;84.97
60089;BME280;45961;53.574;55.878;2023-04-23T05:25:12;99255.81;;;9.85;85.02
60089;BME280;45961;53.574;55.878;2023-04-23T05:26:13;99259.22;;;9.88;85.11
60089;BME280;45961;53.574;55.878;2023-04-23T05:27:14;99260.06;;;9.92;85.03